Terminal Aerodrome Forecast
Issued by NWS Cleveland, OH

Home | Current Version | Previous Version | Text Only | Print | Product List | Glossary Off
Versions: 1 2 3 4 5 6 7 8 9 10 11 12 13 14

395
FTUS41 KCLE 212332
TAFERI
TAF
KERI 212332Z 2200/2224 27008G18KT P6SM SCT035 BKN050
      TEMPO 2200/2204 6SM -SHRA BKN035
     FM220400 33006KT P6SM VCSH BKN025 OVC045
     FM221500 33008KT P6SM SCT035 BKN045
     FM222000 29008KT P6SM SCT045=

USA.gov is the U.S. government's official web portal to all federal, state and local government web resources and services.